sensor_id;sensor_type;location;lat;lon;timestamp;pressure;altitude;pressure_sealevel;temperature;humidity
11808;BME280;5961;42.640;23.380;2022-09-09T00:02:27;94308.38;;;21.87;72.03
11808;BME280;5961;42.640;23.380;2022-09-09T00:04:59;94305.31;;;21.89;72.18
11808;BME280;5961;42.640;23.380;2022-09-09T00:07:37;94292.22;;;21.77;72.50
11808;BME280;5961;42.640;23.380;2022-09-09T00:10:15;94297.59;;;21.84;72.50
11808;BME280;5961;42.640;23.380;2022-09-09T00:12:50;94294.47;;;21.82;72.62
11808;BME280;5961;42.640;23.380;2022-09-09T00:15:22;94289.94;;;21.72;73.26
11808;BME280;5961;42.640;23.380;2022-09-09T00:17:53;94297.63;;;21.73;73.17
11808;BME280;5961;42.640;23.380;2022-09-09T00:20:29;94307.69;;;21.73;72.96
11808;BME280;5961;42.640;23.380;2022-09-09T00:23:04;94298.50;;;21.60;72.79
11808;BME280;5961;42.640;23.380;2022-09-09T00:25:41;94296.94;;;21.62;72.71
11808;BME280;5961;42.640;23.380;2022-09-09T00:28:17;94283.53;;;21.45;73.49
11808;BME280;5961;42.640;23.380;2022-09-09T00:30:45;94293.19;;;21.42;73.28
11808;BME280;5961;42.640;23.380;2022-09-09T00:33:16;94278.94;;;21.34;73.51
11808;BME280;5961;42.640;23.380;2022-09-09T00:35:46;94280.53;;;21.21;73.78
11808;BME280;5961;42.640;23.380;2022-09-09T00:38:18;94280.13;;;21.26;73.63
11808;BME280;5961;42.640;23.380;2022-09-09T00:40:49;94271.28;;;21.15;73.45
11808;BME280;5961;42.640;23.380;2022-09-09T00:43:28;94273.25;;;20.97;74.42
11808;BME280;5961;42.640;23.380;2022-09-09T00:46:06;94264.06;;;20.84;74.93
11808;BME280;5961;42.640;23.380;2022-09-09T00:48:44;94250.19;;;20.71;75.65
11808;BME280;5961;42.640;23.380;2022-09-09T00:51:16;94254.50;;;20.48;76.78
11808;BME280;5961;42.640;23.380;2022-09-09T00:54:08;94257.22;;;20.05;78.75
11808;BME280;5961;42.640;23.380;2022-09-09T00:56:43;94252.63;;;19.88;79.80
11808;BME280;5961;42.640;23.380;2022-09-09T00:59:24;94265.72;;;19.76;80.53
11808;BME280;5961;42.640;23.380;2022-09-09T01:01:54;94252.59;;;19.63;81.06
11808;BME280;5961;42.640;23.380;2022-09-09T01:04:27;94252.97;;;19.62;81.38
11808;BME280;5961;42.640;23.380;2022-09-09T01:07:03;94247.94;;;19.50;81.39
11808;BME280;5961;42.640;23.380;2022-09-09T01:09:42;94248.72;;;19.50;81.58
11808;BME280;5961;42.640;23.380;2022-09-09T01:12:15;94254.88;;;19.51;81.70
11808;BME280;5961;42.640;23.380;2022-09-09T01:14:47;94242.50;;;19.36;81.69
11808;BME280;5961;42.640;23.380;2022-09-09T01:17:17;94227.84;;;19.26;81.89
11808;BME280;5961;42.640;23.380;2022-09-09T01:19:58;94245.59;;;19.31;82.35
11808;BME280;5961;42.640;23.380;2022-09-09T01:22:34;94258.69;;;19.36;82.29
11808;BME280;5961;42.640;23.380;2022-09-09T01:25:29;94258.72;;;19.43;82.11
11808;BME280;5961;42.640;23.380;2022-09-09T01:28:01;94268.34;;;19.44;82.11
11808;BME280;5961;42.640;23.380;2022-09-09T01:30:30;94254.09;;;19.40;82.14
11808;BME280;5961;42.640;23.380;2022-09-09T01:32:58;94252.94;;;19.41;82.04
11808;BME280;5961;42.640;23.380;2022-09-09T01:35:37;94245.25;;;19.50;81.71
11808;BME280;5961;42.640;23.380;2022-09-09T01:38:06;94205.88;;;19.10;82.00
11808;BME280;5961;42.640;23.380;2022-09-09T01:40:33;94255.19;;;19.32;81.90
11808;BME280;5961;42.640;23.380;2022-09-09T01:43:02;94280.22;;;19.29;82.28
11808;BME280;5961;42.640;23.380;2022-09-09T01:45:30;94267.13;;;19.24;82.03
11808;BME280;5961;42.640;23.380;2022-09-09T01:47:57;94262.88;;;19.23;81.70
11808;BME280;5961;42.640;23.380;2022-09-09T01:50:24;94265.97;;;19.32;82.13
11808;BME280;5961;42.640;23.380;2022-09-09T01:52:56;94266.38;;;19.30;81.63
11808;BME280;5961;42.640;23.380;2022-09-09T01:55:29;94268.69;;;19.35;81.10
11808;BME280;5961;42.640;23.380;2022-09-09T01:58:05;94276.41;;;19.37;81.29
11808;BME280;5961;42.640;23.380;2022-09-09T02:00:41;94277.16;;;19.34;80.84
11808;BME280;5961;42.640;23.380;2022-09-09T02:03:19;94254.38;;;19.13;81.08
11808;BME280;5961;42.640;23.380;2022-09-09T02:05:53;94281.75;;;19.30;81.41
11808;BME280;5961;42.640;23.380;2022-09-09T02:08:29;94274.06;;;19.25;82.43
11808;BME280;5961;42.640;23.380;2022-09-09T02:11:05;94272.88;;;19.18;83.20
11808;BME280;5961;42.640;23.380;2022-09-09T02:13:36;94274.06;;;19.25;82.87
11808;BME280;5961;42.640;23.380;2022-09-09T02:16:07;94273.63;;;19.19;83.21
11808;BME280;5961;42.640;23.380;2022-09-09T02:18:36;94274.06;;;19.32;82.86
11808;BME280;5961;42.640;23.380;2022-09-09T02:21:05;94268.66;;;19.32;84.45
11808;BME280;5961;42.640;23.380;2022-09-09T02:23:34;94255.97;;;19.36;82.74
11808;BME280;5961;42.640;23.380;2022-09-09T02:26:01;94248.66;;;19.33;81.89
11808;BME280;5961;42.640;23.380;2022-09-09T02:28:31;94242.44;;;19.11;82.65
11808;BME280;5961;42.640;23.380;2022-09-09T02:31:00;94250.50;;;19.07;83.33
11808;BME280;5961;42.640;23.380;2022-09-09T02:33:30;94254.66;;;18.87;84.08
11808;BME280;5961;42.640;23.380;2022-09-09T02:36:02;94246.91;;;18.75;84.63
11808;BME280;5961;42.640;23.380;2022-09-09T02:38:35;94260.69;;;18.59;84.90
11808;BME280;5961;42.640;23.380;2022-09-09T02:41:04;94231.63;;;18.25;86.25
11808;BME280;5961;42.640;23.380;2022-09-09T02:43:32;94265.28;;;18.52;86.19
11808;BME280;5961;42.640;23.380;2022-09-09T02:46:06;94253.72;;;18.51;86.40
11808;BME280;5961;42.640;23.380;2022-09-09T02:48:44;94268.41;;;18.64;85.97
11808;BME280;5961;42.640;23.380;2022-09-09T02:51:19;94282.28;;;18.67;85.77
11808;BME280;5961;42.640;23.380;2022-09-09T02:53:55;94279.22;;;18.75;85.81
11808;BME280;5961;42.640;23.380;2022-09-09T02:56:26;94285.09;;;18.91;85.08
11808;BME280;5961;42.640;23.380;2022-09-09T02:58:55;94260.47;;;18.93;84.75
11808;BME280;5961;42.640;23.380;2022-09-09T03:01:23;94274.41;;;19.12;84.51
11808;BME280;5961;42.640;23.380;2022-09-09T03:03:50;94269.41;;;19.25;84.62
11808;BME280;5961;42.640;23.380;2022-09-09T03:06:17;94248.63;;;19.18;85.25
11808;BME280;5961;42.640;23.380;2022-09-09T03:08:43;94269.06;;;19.37;85.57
11808;BME280;5961;42.640;23.380;2022-09-09T03:11:10;94279.09;;;19.40;85.56
11808;BME280;5961;42.640;23.380;2022-09-09T03:13:37;94274.88;;;19.46;85.46
11808;BME280;5961;42.640;23.380;2022-09-09T03:16:04;94284.16;;;19.45;85.63
11808;BME280;5961;42.640;23.380;2022-09-09T03:18:32;94281.06;;;19.47;85.84
11808;BME280;5961;42.640;23.380;2022-09-09T03:20:59;94282.97;;;19.46;85.86
11808;BME280;5961;42.640;23.380;2022-09-09T03:23:26;94279.13;;;19.44;86.17
11808;BME280;5961;42.640;23.380;2022-09-09T03:25:53;94277.91;;;19.38;86.15
11808;BME280;5961;42.640;23.380;2022-09-09T03:28:22;94274.91;;;19.43;85.86
11808;BME280;5961;42.640;23.380;2022-09-09T03:30:58;94281.81;;;19.44;86.03
11808;BME280;5961;42.640;23.380;2022-09-09T03:33:25;94274.91;;;19.43;85.89
11808;BME280;5961;42.640;23.380;2022-09-09T03:35:53;94276.03;;;19.42;85.75
11808;BME280;5961;42.640;23.380;2022-09-09T03:38:22;94262.56;;;19.42;85.83
11808;BME280;5961;42.640;23.380;2022-09-09T03:40:50;94273.34;;;19.52;85.67
11808;BME280;5961;42.640;23.380;2022-09-09T03:43:17;94277.22;;;19.51;85.44
11808;BME280;5961;42.640;23.380;2022-09-09T03:45:45;94274.13;;;19.53;85.30
11808;BME280;5961;42.640;23.380;2022-09-09T03:48:12;94281.84;;;19.51;85.20
11808;BME280;5961;42.640;23.380;2022-09-09T03:50:39;94281.84;;;19.51;85.16
11808;BME280;5961;42.640;23.380;2022-09-09T03:53:11;94280.28;;;19.46;85.03
11808;BME280;5961;42.640;23.380;2022-09-09T03:55:38;94274.53;;;19.48;85.10
11808;BME280;5961;42.640;23.380;2022-09-09T03:58:06;94279.53;;;19.53;84.76
11808;BME280;5961;42.640;23.380;2022-09-09T04:00:33;94274.13;;;19.53;84.73
11808;BME280;5961;42.640;23.380;2022-09-09T04:03:00;94286.47;;;19.57;84.42
11808;BME280;5961;42.640;23.380;2022-09-09T04:05:28;94288.41;;;19.57;84.40
11808;BME280;5961;42.640;23.380;2022-09-09T04:07:55;94289.56;;;19.63;84.13
11808;BME280;5961;42.640;23.380;2022-09-09T04:10:23;94287.25;;;19.68;83.77
11808;BME280;5961;42.640;23.380;2022-09-09T04:12:50;94288.81;;;19.73;83.48
11808;BME280;5961;42.640;23.380;2022-09-09T04:15:17;94288.81;;;19.80;83.13
11808;BME280;5961;42.640;23.380;2022-09-09T04:17:44;94228.69;;;19.41;82.97
11808;BME280;5961;42.640;23.380;2022-09-09T04:20:11;94272.66;;;19.73;82.65
11808;BME280;5961;42.640;23.380;2022-09-09T04:22:38;94283.81;;;19.79;82.73
11808;BME280;5961;42.640;23.380;2022-09-09T04:25:06;94279.94;;;19.80;83.07
11808;BME280;5961;42.640;23.380;2022-09-09T04:27:34;94286.50;;;19.86;82.88
11808;BME280;5961;42.640;23.380;2022-09-09T04:30:01;94286.50;;;19.89;82.12
11808;BME280;5961;42.640;23.380;2022-09-09T04:32:28;94293.06;;;19.92;81.82
11808;BME280;5961;42.640;23.380;2022-09-09T04:34:54;94289.63;;;19.91;81.67
11808;BME280;5961;42.640;23.380;2022-09-09T04:37:21;94287.28;;;19.93;81.19
11808;BME280;5961;42.640;23.380;2022-09-09T04:39:48;94293.44;;;19.83;80.54
11808;BME280;5961;42.640;23.380;2022-09-09T04:42:15;94285.72;;;19.71;79.98
11808;BME280;5961;42.640;23.380;2022-09-09T04:44:43;94300.38;;;19.70;80.61
11808;BME280;5961;42.640;23.380;2022-09-09T04:47:10;94247.84;;;19.25;80.88
11808;BME280;5961;42.640;23.380;2022-09-09T04:49:37;94295.28;;;19.44;80.90
11808;BME280;5961;42.640;23.380;2022-09-09T04:52:04;94292.22;;;19.42;81.35
11808;BME280;5961;42.640;23.380;2022-09-09T04:54:31;94277.91;;;19.27;82.27
11808;BME280;5961;42.640;23.380;2022-09-09T04:56:58;94286.34;;;19.26;82.62
11808;BME280;5961;42.640;23.380;2022-09-09T04:59:24;94284.81;;;19.17;83.18
11808;BME280;5961;42.640;23.380;2022-09-09T05:01:52;94267.03;;;19.02;83.96
11808;BME280;5961;42.640;23.380;2022-09-09T05:04:20;94259.31;;;19.01;84.56
11808;BME280;5961;42.640;23.380;2022-09-09T05:06:47;94280.91;;;19.04;84.93
11808;BME280;5961;42.640;23.380;2022-09-09T05:09:13;94268.16;;;18.94;85.09
11808;BME280;5961;42.640;23.380;2022-09-09T05:11:40;94263.22;;;19.03;84.93
11808;BME280;5961;42.640;23.380;2022-09-09T05:14:07;94257.44;;;19.08;84.49
11808;BME280;5961;42.640;23.380;2022-09-09T05:16:34;94248.63;;;19.15;84.44
11808;BME280;5961;42.640;23.380;2022-09-09T05:19:02;94266.38;;;19.34;83.74
11808;BME280;5961;42.640;23.380;2022-09-09T05:21:29;94276.00;;;19.35;83.23
11808;BME280;5961;42.640;23.380;2022-09-09T05:23:56;94264.88;;;19.40;82.96
11808;BME280;5961;42.640;23.380;2022-09-09T05:26:23;94259.44;;;19.36;82.45
11808;BME280;5961;42.640;23.380;2022-09-09T05:28:50;94252.56;;;19.46;82.27
11808;BME280;5961;42.640;23.380;2022-09-09T05:31:17;94257.97;;;19.53;81.63
11808;BME280;5961;42.640;23.380;2022-09-09T05:33:45;94231.00;;;19.42;81.15
11808;BME280;5961;42.640;23.380;2022-09-09T05:36:16;94259.91;;;19.73;81.06
11808;BME280;5961;42.640;23.380;2022-09-09T05:38:43;94256.06;;;19.82;80.77
11808;BME280;5961;42.640;23.380;2022-09-09T05:41:11;94262.63;;;19.91;79.91
11808;BME280;5961;42.640;23.380;2022-09-09T05:43:38;94261.06;;;20.04;79.58
11808;BME280;5961;42.640;23.380;2022-09-09T05:46:07;94265.72;;;20.14;78.47
11808;BME280;5961;42.640;23.380;2022-09-09T05:48:35;94270.72;;;20.19;77.53
11808;BME280;5961;42.640;23.380;2022-09-09T05:51:03;94278.84;;;20.30;78.32
11808;BME280;5961;42.640;23.380;2022-09-09T05:53:33;94285.00;;;20.45;83.49
11808;BME280;5961;42.640;23.380;2022-09-09T05:56:01;94268.78;;;20.52;82.90
11808;BME280;5961;42.640;23.380;2022-09-09T05:58:29;94237.91;;;20.53;84.80
11808;BME280;5961;42.640;23.380;2022-09-09T06:01:03;94272.53;;;20.86;79.14
11808;BME280;5961;42.640;23.380;2022-09-09T06:03:31;94282.50;;;21.03;75.45
11808;BME280;5961;42.640;23.380;2022-09-09T06:05:59;94285.56;;;21.16;73.29
11808;BME280;5961;42.640;23.380;2022-09-09T06:08:26;94297.88;;;21.27;72.44
11808;BME280;5961;42.640;23.380;2022-09-09T06:11:01;94303.25;;;21.38;71.93
11808;BME280;5961;42.640;23.380;2022-09-09T06:13:29;94307.06;;;21.51;71.89
11808;BME280;5961;42.640;23.380;2022-09-09T06:15:56;94310.06;;;21.64;70.29
11808;BME280;5961;42.640;23.380;2022-09-09T06:18:23;94304.63;;;21.71;69.63
11808;BME280;5961;42.640;23.380;2022-09-09T06:20:56;94293.31;;;21.86;69.74
11808;BME280;5961;42.640;23.380;2022-09-09T06:23:23;94297.50;;;21.98;69.05
11808;BME280;5961;42.640;23.380;2022-09-09T06:25:50;94292.41;;;22.07;67.84
11808;BME280;5961;42.640;23.380;2022-09-09T06:28:18;94297.78;;;22.14;65.98
11808;BME280;5961;42.640;23.380;2022-09-09T06:30:45;94299.69;;;22.17;66.36
11808;BME280;5961;42.640;23.380;2022-09-09T06:33:12;94297.72;;;22.21;66.11
11808;BME280;5961;42.640;23.380;2022-09-09T06:35:39;94300.00;;;22.26;66.03
11808;BME280;5961;42.640;23.380;2022-09-09T06:38:06;94301.13;;;22.29;66.38
11808;BME280;5961;42.640;23.380;2022-09-09T06:40:33;94292.56;;;22.34;65.10
11808;BME280;5961;42.640;23.380;2022-09-09T06:43:00;94278.69;;;22.28;65.08
11808;BME280;5961;42.640;23.380;2022-09-09T06:45:32;94289.09;;;22.33;65.35
11808;BME280;5961;42.640;23.380;2022-09-09T06:48:02;94287.91;;;22.38;65.32
11808;BME280;5961;42.640;23.380;2022-09-09T06:50:29;94200.56;;;21.82;65.40
11808;BME280;5961;42.640;23.380;2022-09-09T06:52:55;94291.78;;;22.37;65.76
11808;BME280;5961;42.640;23.380;2022-09-09T06:55:25;94293.72;;;22.36;65.67
11808;BME280;5961;42.640;23.380;2022-09-09T06:57:52;94300.28;;;22.39;66.19
11808;BME280;5961;42.640;23.380;2022-09-09T07:00:19;94304.19;;;22.34;66.90
11808;BME280;5961;42.640;23.380;2022-09-09T07:02:47;94306.84;;;22.41;66.98
11808;BME280;5961;42.640;23.380;2022-09-09T07:05:16;94311.13;;;22.39;66.56
11808;BME280;5961;42.640;23.380;2022-09-09T07:07:42;94301.84;;;22.36;66.07
11808;BME280;5961;42.640;23.380;2022-09-09T07:10:09;94308.34;;;22.42;65.40
11808;BME280;5961;42.640;23.380;2022-09-09T07:12:36;94316.88;;;22.45;65.33
11808;BME280;5961;42.640;23.380;2022-09-09T07:15:04;94311.03;;;22.46;65.46
11808;BME280;5961;42.640;23.380;2022-09-09T07:17:31;94296.38;;;22.43;65.50
11808;BME280;5961;42.640;23.380;2022-09-09T07:19:59;94294.78;;;22.46;65.33
11808;BME280;5961;42.640;23.380;2022-09-09T07:22:27;94295.63;;;22.39;65.85
11808;BME280;5961;42.640;23.380;2022-09-09T07:24:54;94297.13;;;22.48;64.68
11808;BME280;5961;42.640;23.380;2022-09-09T07:27:21;94298.63;;;22.49;64.80
11808;BME280;5961;42.640;23.380;2022-09-09T07:29:48;94292.84;;;22.47;64.53
11808;BME280;5961;42.640;23.380;2022-09-09T07:32:14;94286.25;;;22.51;64.49
11808;BME280;5961;42.640;23.380;2022-09-09T07:34:41;94289.28;;;22.57;64.21
11808;BME280;5961;42.640;23.380;2022-09-09T07:37:09;94286.13;;;22.62;64.36
11808;BME280;5961;42.640;23.380;2022-09-09T07:39:38;94289.19;;;22.64;64.25
11808;BME280;5961;42.640;23.380;2022-09-09T07:42:05;94291.06;;;22.74;64.48
11808;BME280;5961;42.640;23.380;2022-09-09T07:44:32;94295.75;;;22.70;65.06
11808;BME280;5961;42.640;23.380;2022-09-09T07:47:01;94292.25;;;22.73;64.63
11808;BME280;5961;42.640;23.380;2022-09-09T07:49:27;94304.91;;;22.83;63.19
11808;BME280;5961;42.640;23.380;2022-09-09T07:51:54;94309.16;;;22.87;61.97
11808;BME280;5961;42.640;23.380;2022-09-09T07:54:22;94307.16;;;22.91;62.37
11808;BME280;5961;42.640;23.380;2022-09-09T07:56:50;94300.88;;;22.98;61.87
11808;BME280;5961;42.640;23.380;2022-09-09T07:59:17;94298.91;;;23.02;61.53
11808;BME280;5961;42.640;23.380;2022-09-09T08:01:45;94300.44;;;23.03;61.12
11808;BME280;5961;42.640;23.380;2022-09-09T08:04:14;94293.38;;;23.09;61.60
11808;BME280;5961;42.640;23.380;2022-09-09T08:06:44;94293.34;;;23.13;61.60
11808;BME280;5961;42.640;23.380;2022-09-09T08:09:12;94293.28;;;23.20;61.54
11808;BME280;5961;42.640;23.380;2022-09-09T08:11:42;94295.53;;;23.25;60.76
11808;BME280;5961;42.640;23.380;2022-09-09T08:14:10;94292.44;;;23.26;60.91
11808;BME280;5961;42.640;23.380;2022-09-09T08:16:39;94296.16;;;23.36;60.50
11808;BME280;5961;42.640;23.380;2022-09-09T08:19:06;94303.47;;;23.42;60.56
11808;BME280;5961;42.640;23.380;2022-09-09T08:21:34;94300.69;;;23.49;60.63
11808;BME280;5961;42.640;23.380;2022-09-09T08:24:03;94290.56;;;23.54;60.19
11808;BME280;5961;42.640;23.380;2022-09-09T08:26:31;94293.16;;;23.61;59.80
11808;BME280;5961;42.640;23.380;2022-09-09T08:29:02;94290.00;;;23.66;60.07
11808;BME280;5961;42.640;23.380;2022-09-09T08:31:31;94289.50;;;23.74;60.54
11808;BME280;5961;42.640;23.380;2022-09-09T08:33:59;94292.09;;;23.81;60.29
11808;BME280;5961;42.640;23.380;2022-09-09T08:36:28;94283.13;;;23.84;59.77
11808;BME280;5961;42.640;23.380;2022-09-09T08:38:56;94286.88;;;23.94;58.90
11808;BME280;5961;42.640;23.380;2022-09-09T08:41:40;94267.22;;;23.86;59.45
11808;BME280;5961;42.640;23.380;2022-09-09T08:44:14;94291.34;;;24.08;58.75
11808;BME280;5961;42.640;23.380;2022-09-09T08:46:51;94289.66;;;24.17;59.05
11808;BME280;5961;42.640;23.380;2022-09-09T08:52:17;94282.63;;;24.20;57.66
11808;BME280;5961;42.640;23.380;2022-09-09T08:54:46;94291.91;;;24.22;57.48
11808;BME280;5961;42.640;23.380;2022-09-09T08:57:19;94280.69;;;24.20;57.87
11808;BME280;5961;42.640;23.380;2022-09-09T08:59:49;94278.66;;;24.24;58.16
11808;BME280;5961;42.640;23.380;2022-09-09T09:02:21;94267.13;;;24.20;57.70
11808;BME280;5961;42.640;23.380;2022-09-09T09:05:00;94282.44;;;24.30;57.25
11808;BME280;5961;42.640;23.380;2022-09-09T09:07:44;94278.09;;;24.36;58.24
11808;BME280;5961;42.640;23.380;2022-09-09T09:10:17;94289.66;;;24.40;58.23
11808;BME280;5961;42.640;23.380;2022-09-09T09:12:46;94281.81;;;24.46;57.78
11808;BME280;5961;42.640;23.380;2022-09-09T09:15:18;94280.59;;;24.50;57.29
11808;BME280;5961;42.640;23.380;2022-09-09T09:17:47;94281.28;;;24.54;57.65
11808;BME280;5961;42.640;23.380;2022-09-09T09:20:16;94282.75;;;24.59;57.62
11808;BME280;5961;42.640;23.380;2022-09-09T09:22:47;94279.56;;;24.64;58.27
11808;BME280;5961;42.640;23.380;2022-09-09T09:25:18;94282.56;;;24.70;57.92
11808;BME280;5961;42.640;23.380;2022-09-09T09:27:51;94266.97;;;24.74;57.90
11808;BME280;5961;42.640;23.380;2022-09-09T09:30:23;94269.19;;;24.79;57.76
11808;BME280;5961;42.640;23.380;2022-09-09T09:32:53;94260.34;;;24.75;57.49
11808;BME280;5961;42.640;23.380;2022-09-09T09:35:21;94282.63;;;24.89;57.36
11808;BME280;5961;42.640;23.380;2022-09-09T09:37:49;94280.25;;;24.91;56.35
11808;BME280;5961;42.640;23.380;2022-09-09T09:40:17;94274.47;;;24.89;55.94
11808;BME280;5961;42.640;23.380;2022-09-09T09:42:49;94282.06;;;24.98;55.69
11808;BME280;5961;42.640;23.380;2022-09-09T09:45:25;94272.38;;;24.97;56.02
11808;BME280;5961;42.640;23.380;2022-09-09T09:48:02;94277.47;;;24.95;55.73
11808;BME280;5961;42.640;23.380;2022-09-09T09:50:30;94261.16;;;24.95;55.84
11808;BME280;5961;42.640;23.380;2022-09-09T09:52:59;94257.09;;;25.03;55.77
11808;BME280;5961;42.640;23.380;2022-09-09T09:55:29;94257.81;;;25.07;56.08
11808;BME280;5961;42.640;23.380;2022-09-09T09:58:02;94248.94;;;25.03;56.37
11808;BME280;5961;42.640;23.380;2022-09-09T10:00:31;94254.59;;;25.12;55.99
11808;BME280;5961;42.640;23.380;2022-09-09T10:03:00;94248.69;;;25.17;55.84
11808;BME280;5961;42.640;23.380;2022-09-09T10:05:29;94250.56;;;25.20;55.29
11808;BME280;5961;42.640;23.380;2022-09-09T10:08:04;94245.38;;;25.26;55.83
11808;BME280;5961;42.640;23.380;2022-09-09T10:10:43;94259.59;;;25.33;55.46
11808;BME280;5961;42.640;23.380;2022-09-09T10:13:18;94256.03;;;25.36;55.19
11808;BME280;5961;42.640;23.380;2022-09-09T10:15:59;94261.00;;;25.41;54.93
11808;BME280;5961;42.640;23.380;2022-09-09T10:18:41;94248.66;;;25.37;55.06
11808;BME280;5961;42.640;23.380;2022-09-09T10:21:38;94259.47;;;25.40;54.89
11808;BME280;5961;42.640;23.380;2022-09-09T10:24:23;94265.66;;;25.41;55.00
11808;BME280;5961;42.640;23.380;2022-09-09T10:26:55;94270.34;;;25.40;54.80
11808;BME280;5961;42.640;23.380;2022-09-09T10:29:39;94263.41;;;25.36;55.24
11808;BME280;5961;42.640;23.380;2022-09-09T10:32:29;94264.19;;;25.36;55.49
11808;BME280;5961;42.640;23.380;2022-09-09T10:35:09;94266.59;;;25.34;55.67
11808;BME280;5961;42.640;23.380;2022-09-09T10:37:43;94265.09;;;25.30;55.83
11808;BME280;5961;42.640;23.380;2022-09-09T10:40:21;94258.91;;;25.29;56.15
11808;BME280;5961;42.640;23.380;2022-09-09T10:42:53;94267.50;;;25.28;55.37
11808;BME280;5961;42.640;23.380;2022-09-09T10:45:27;94249.84;;;25.16;55.45
11808;BME280;5961;42.640;23.380;2022-09-09T10:48:15;94262.94;;;25.21;56.28
11808;BME280;5961;42.640;23.380;2022-09-09T10:50:52;94268.06;;;25.19;56.10
11808;BME280;5961;42.640;23.380;2022-09-09T10:53:28;94267.28;;;25.19;56.03
11808;BME280;5961;42.640;23.380;2022-09-09T10:56:04;94274.66;;;25.18;55.97
11808;BME280;5961;42.640;23.380;2022-09-09T10:58:38;94271.63;;;25.16;56.06
11808;BME280;5961;42.640;23.380;2022-09-09T11:01:13;94264.63;;;25.15;55.83
11808;BME280;5961;42.640;23.380;2022-09-09T11:03:45;94227.97;;;24.84;56.21
11808;BME280;5961;42.640;23.380;2022-09-09T11:06:18;94264.34;;;25.09;56.42
11808;BME280;5961;42.640;23.380;2022-09-09T11:08:46;94268.25;;;25.08;56.27
11808;BME280;5961;42.640;23.380;2022-09-09T11:11:18;94274.97;;;25.04;56.67
11808;BME280;5961;42.640;23.380;2022-09-09T11:13:51;94271.47;;;25.03;56.72
11808;BME280;5961;42.640;23.380;2022-09-09T11:16:25;94279.22;;;25.05;56.68
11808;BME280;5961;42.640;23.380;2022-09-09T11:19:00;94242.78;;;24.79;56.86
11808;BME280;5961;42.640;23.380;2022-09-09T11:21:32;94245.75;;;24.88;56.88
11808;BME280;5961;42.640;23.380;2022-09-09T11:24:04;94263.59;;;25.09;56.90
11808;BME280;5961;42.640;23.380;2022-09-09T11:26:37;94256.97;;;25.10;57.44
11808;BME280;5961;42.640;23.380;2022-09-09T11:29:28;94253.75;;;25.15;57.54
11808;BME280;5961;42.640;23.380;2022-09-09T11:32:12;94253.69;;;25.19;57.84
11808;BME280;5961;42.640;23.380;2022-09-09T11:34:53;94239.69;;;25.20;57.71
11808;BME280;5961;42.640;23.380;2022-09-09T11:38:02;94232.63;;;25.23;57.72
11808;BME280;5961;42.640;23.380;2022-09-09T11:40:32;94223.63;;;25.26;57.47
11808;BME280;5961;42.640;23.380;2022-09-09T11:43:02;94210.09;;;25.22;57.14
11808;BME280;5961;42.640;23.380;2022-09-09T11:45:33;94223.13;;;25.31;57.01
11808;BME280;5961;42.640;23.380;2022-09-09T11:48:02;94215.28;;;25.33;57.28
11808;BME280;5961;42.640;23.380;2022-09-09T11:50:36;94206.38;;;25.32;57.67
11808;BME280;5961;42.640;23.380;2022-09-09T11:53:20;94201.13;;;25.41;57.63
11808;BME280;5961;42.640;23.380;2022-09-09T11:56:00;94160.13;;;25.32;57.67
11808;BME280;5961;42.640;23.380;2022-09-09T11:58:28;94178.03;;;25.49;57.91
11808;BME280;5961;42.640;23.380;2022-09-09T12:00:58;94171.69;;;25.56;58.16
11808;BME280;5961;42.640;23.380;2022-09-09T12:03:35;94178.91;;;25.62;57.97
11808;BME280;5961;42.640;23.380;2022-09-09T12:06:12;94188.94;;;25.66;58.15
11808;BME280;5961;42.640;23.380;2022-09-09T12:08:43;94185.03;;;25.67;57.06
11808;BME280;5961;42.640;23.380;2022-09-09T12:11:11;94197.31;;;25.75;56.93
11808;BME280;5961;42.640;23.380;2022-09-09T12:13:38;94180.44;;;25.80;56.97
11808;BME280;5961;42.640;23.380;2022-09-09T12:16:28;94180.78;;;25.82;56.38
11808;BME280;5961;42.640;23.380;2022-09-09T12:19:03;94181.13;;;25.84;56.48
11808;BME280;5961;42.640;23.380;2022-09-09T12:21:35;94172.84;;;25.87;57.20
11808;BME280;5961;42.640;23.380;2022-09-09T12:24:07;94174.31;;;25.92;56.68
11808;BME280;5961;42.640;23.380;2022-09-09T12:26:38;94175.16;;;25.89;57.14
11808;BME280;5961;42.640;23.380;2022-09-09T12:29:19;94168.78;;;25.95;56.55
11808;BME280;5961;42.640;23.380;2022-09-09T12:31:55;94172.16;;;25.99;55.98
11808;BME280;5961;42.640;23.380;2022-09-09T12:34:34;94171.69;;;26.04;56.11
11808;BME280;5961;42.640;23.380;2022-09-09T12:37:06;94166.03;;;26.11;55.40
11808;BME280;5961;42.640;23.380;2022-09-09T12:39:42;94154.28;;;26.14;55.66
11808;BME280;5961;42.640;23.380;2022-09-09T12:42:18;94147.22;;;26.17;55.41
11808;BME280;5961;42.640;23.380;2022-09-09T12:44:53;94151.09;;;26.20;55.65
11808;BME280;5961;42.640;23.380;2022-09-09T12:47:23;94144.78;;;26.23;56.24
11808;BME280;5961;42.640;23.380;2022-09-09T12:49:52;94152.50;;;26.24;55.63
11808;BME280;5961;42.640;23.380;2022-09-09T12:52:26;94113.88;;;25.97;56.03
11808;BME280;5961;42.640;23.380;2022-09-09T12:54:56;94158.97;;;26.30;55.75
11808;BME280;5961;42.640;23.380;2022-09-09T12:57:24;94155.38;;;26.33;54.99
11808;BME280;5961;42.640;23.380;2022-09-09T12:59:52;94149.75;;;26.40;55.33
11808;BME280;5961;42.640;23.380;2022-09-09T13:02:21;94137.03;;;26.50;55.88
11808;BME280;5961;42.640;23.380;2022-09-09T13:04:49;94134.47;;;26.59;56.34
11808;BME280;5961;42.640;23.380;2022-09-09T13:07:17;94135.00;;;26.66;56.30
11808;BME280;5961;42.640;23.380;2022-09-09T13:09:47;94131.66;;;26.75;55.49
11808;BME280;5961;42.640;23.380;2022-09-09T13:12:16;94132.25;;;26.83;55.22
11808;BME280;5961;42.640;23.380;2022-09-09T13:14:45;94120.91;;;26.84;54.27
11808;BME280;5961;42.640;23.380;2022-09-09T13:17:20;94128.97;;;26.88;54.24
11808;BME280;5961;42.640;23.380;2022-09-09T13:19:47;94119.06;;;26.94;53.91
11808;BME280;5961;42.640;23.380;2022-09-09T13:22:21;94120.72;;;27.04;53.83
11808;BME280;5961;42.640;23.380;2022-09-09T13:25:01;94121.81;;;27.06;53.66